Latest Coastal Weather Observations for Truscott

IDD60701

Issued at 7:31 am CST Friday 26 August 2016 (issued every 10 minutes, with the page automatically refreshed every 10 minutes)

About coastal observations | Map of coastal stations | Coastal observations for NT | Marine services | Other Formats
Station Details ID: 001020 Name: TRUSCOTT Lat: -14.09 Lon: 126.39 Height: 51.0 m
Data from the previous 72 hours. | See also: Recent months at Truscott
Date/Time
CST
Temp
°C
Wind Pressure Rain since
9am
mm
Weather Cloud Vis
km
Sea
Height
m
Swell
Dir  Spd
kts
Gust
kts
hPa Trend Height
m
Period
s
Dir
26/07:30am 21.9 SSE 5 7 1012.8 - 0.0 - - 10 - - - -
26/07:00am 21.8 SSE 5 6 1012.6 - 0.0 - Partly cloudy 10 - - - -
26/06:30am 21.7 SSE 4 6 1012.5 - 0.0 - Cloudy 10 - - - -
26/06:00am 21.1 SE 4 6 1012.3 - 0.0 - Partly cloudy 10 - - - -
26/05:30am 20.1 ESE 5 6 1012.1 - 0.0 - - 10 - - - -
26/05:00am 20.2 SSE 3 4 1012.0 - 0.0 - - 9 - - - -
26/04:35am 20.2 SSE 3 5 1011.9 - 0.0 - - 10 - - - -
26/04:30am 20.3 SSE 3 5 1011.8 - 0.0 - - 10 - - - -
26/04:17am 20.4 SSE 3 4 1011.8 - 0.0 - - 5 - - - -
26/04:00am 20.5 S 4 5 1011.7 - 0.0 - - 10 - - - -
26/03:30am 20.2 SSE 3 4 1011.7 - 0.0 - - 9 - - - -
26/03:00am 20.9 CALM 0 0 1011.8 - 0.0 - - 10 - - - -
26/02:30am 21.2 CALM 0 0 1012.3 - 0.0 - - 10 - - - -
26/02:00am 21.2 CALM 0 0 1012.6 - 0.0 - - 10 - - - -
26/01:30am 21.1 CALM 0 0 1012.7 - 0.0 - - 10 - - - -
26/01:00am 21.9 CALM 0 0 1012.7 - 0.0 - - 10 - - - -
26/12:30am 22.0 CALM 0 0 1013.0 - 0.0 - - 10 - - - -
26/12:00am 22.0 CALM 0 0 1013.0 - 0.0 - - 9 - - - -
 
Date/Time
CST
Temp
°C
Wind Pressure Rain since
9am
mm
Weather Cloud Vis
km
Sea
Height
m
Swell
Dir  Spd
kts
Gust
kts
hPa Trend Height
m
Period
s
Dir
25/11:30pm 22.3 CALM 0 0 1013.0 - 0.0 - - 10 - - - -
25/11:00pm 22.5 CALM 0 0 1012.9 - 0.0 - - 9 - - - -
25/10:30pm 24.2 NW 1 4 1012.9 - 0.0 - - 10 - - - -
25/10:00pm 23.8 NNE 3 4 1012.7 - 0.0 - - 10 - - - -
25/09:30pm 24.5 NNE 4 5 1012.5 - 0.0 - - 10 - - - -
25/09:00pm 25.0 NNE 4 5 1012.3 - 0.0 - - 10 - - - -
25/08:30pm 25.3 N 4 6 1011.9 - 0.0 - - 10 - - - -
25/08:00pm 25.5 N 4 5 1011.5 - 0.0 - - 10 - - - -
25/07:30pm 25.9 N 5 8 1011.1 - 0.0 - - 10 - - - -
25/07:00pm 26.3 N 7 11 1010.7 - 0.0 - - 10 - - - -
25/06:30pm 26.9 N 9 12 1010.2 - 0.0 - - 10 - - - -
25/06:00pm 27.7 N 9 14 1009.9 - 0.0 - - 10 - - - -
25/05:30pm 28.2 N 10 14 1009.6 - 0.0 - - 10 - - - -
25/05:00pm 29.3 N 9 14 1009.4 - 0.0 - - 10 - - - -
25/04:30pm 30.4 N 9 13 1009.3 - 0.0 - - 10 - - - -
25/04:00pm 31.4 NW 9 14 1009.1 - 0.0 - - 10 - - - -
25/03:30pm 31.1 N 8 14 1009.2 - 0.0 - - 10 - - - -
25/03:00pm 32.0 NNE 6 10 1009.6 - 0.0 - - 10 - - - -
25/02:30pm 32.1 E 6 10 1010.1 - 0.0 - Partly cloudy 10 - - - -
25/02:00pm 31.9 ESE 7 11 1010.5 - 0.0 - Partly cloudy 10 - - - -
25/01:30pm 31.4 ESE 7 14 1010.9 - 0.0 - Partly cloudy 10 - - - -
25/01:00pm 30.9 NNE 7 13 1011.3 - 0.0 - - 10 - - - -
25/12:30pm 31.4 ESE 7 12 1011.8 - 0.0 - Partly cloudy 10 - - - -
25/12:00pm 30.7 NE 6 11 1012.1 - 0.0 - - 10 - - - -
25/11:30am 30.1 WNW 5 9 1012.2 - 0.0 - - 10 - - - -
25/11:00am 29.4 W 3 6 1012.3 - 0.0 - - 10 - - - -
25/10:30am 28.5 WSW 4 7 1012.3 - 0.0 - - 10 - - - -
25/10:00am 28.0 WNW 4 6 1012.2 - 0.0 - - 10 - - - -
25/09:30am 26.7 WNW 4 6 1012.0 - 0.0 - - 10 - - - -
25/09:00am 25.8 W 3 5 1011.7 - 0.0 - - 10 - - - -
25/08:30am 24.3 SSW 2 4 1011.5 - 0.0 - - 10 - - - -
25/08:00am 21.5 CALM 0 0 1011.2 - 0.0 - - 10 - - - -
25/07:34am 19.4 CALM 0 0 1010.9 - 0.0 - - 10 - - - -
25/07:30am 19.4 CALM 0 0 1010.9 - 0.0 - - 10 - - - -
25/07:19am 19.1 CALM 0 0 1010.8 - 0.0 - - 5 - - - -
25/07:00am 19.5 SSE 1 3 1010.5 - 0.0 - - 10 - - - -
25/06:30am 19.4 SE 4 5 1010.2 - 0.0 - - 8 - - - -
25/06:00am 19.2 ESE 3 4 1010.0 - 0.0 - - 8 - - - -
25/05:30am 19.6 ENE 3 4 1009.8 - 0.0 - - 8 - - - -
25/05:00am 19.2 ESE 3 4 1009.8 - 0.0 - - 10 - - - -
25/04:30am 19.2 ESE 3 4 1009.7 - 0.0 - - 10 - - - -
25/04:00am 19.6 ESE 4 5 1009.8 - 0.0 - - 10 - - - -
25/03:30am 19.5 ESE 3 5 1009.9 - 0.0 - - 10 - - - -
25/03:00am 19.5 SE 3 4 1010.0 - 0.0 - - 10 - - - -
25/02:30am 19.2 SE 3 5 1010.2 - 0.0 - - 10 - - - -
25/02:00am 19.4 CALM 0 0 1010.3 - 0.0 - - 10 - - - -
25/01:30am 19.1 SSE 3 5 1010.5 - 0.0 - - 10 - - - -
25/01:00am 19.4 CALM 0 0 1010.5 - 0.0 - - 10 - - - -
25/12:30am 19.6 CALM 0 0 1010.5 - 0.0 - - 10 - - - -
25/12:00am 20.0 CALM 0 0 1010.6 - 0.0 - - 10 - - - -
 
Date/Time
CST
Temp
°C
Wind Pressure Rain since
9am
mm
Weather Cloud Vis
km
Sea
Height
m
Swell
Dir  Spd
kts
Gust
kts
hPa Trend Height
m
Period
s
Dir
24/11:30pm 21.0 WNW 1 4 1010.6 - 0.0 - - 10 - - - -
24/11:00pm 23.1 NW 3 4 1010.7 - 0.0 - - 10 - - - -
24/10:30pm 23.5 NW 4 6 1010.7 - 0.0 - - 9 - - - -
24/10:00pm 23.6 NW 4 5 1010.6 - 0.0 - - 10 - - - -
24/09:30pm 25.0 WNW 4 6 1010.5 - 0.0 - - 10 - - - -
24/09:00pm 25.3 NW 5 7 1010.2 - 0.0 - - 9 - - - -
24/08:30pm 25.4 NNW 5 8 1010.0 - 0.0 - - 10 - - - -
24/08:00pm 25.6 NNW 5 7 1009.6 - 0.0 - - 10 - - - -
24/07:30pm 26.1 NNW 5 7 1009.2 - 0.0 - - 10 - - - -
24/07:00pm 27.2 NNW 5 7 1008.8 - 0.0 - - 10 - - - -
24/06:30pm 28.9 NW 6 9 1008.5 - 0.0 - - 10 - - - -
24/06:00pm 29.8 W 7 9 1008.2 - 0.0 - - 10 - - - -
24/05:30pm 30.4 WNW 8 13 1007.9 - 0.0 - - 10 - - - -
24/05:00pm 30.7 W 9 16 1007.8 - 0.0 - - 10 - - - -
24/04:30pm 30.8 W 9 12 1007.8 - 0.0 - - 10 - - - -
24/04:00pm 30.6 W 11 15 1007.9 - 0.0 - - 10 - - - -
24/03:30pm 31.7 W 10 15 1008.0 - 0.0 - - 9 - - - -
24/03:00pm 32.1 WSW 9 14 1008.2 - 0.0 - - 10 - - - -
24/02:30pm 32.0 W 8 14 1008.5 - 0.0 - - 10 - - - -
24/02:00pm 31.7 WNW 6 12 1008.9 - 0.0 - - 10 - - - -
24/01:30pm 31.5 WSW 7 12 1009.3 - 0.0 - - 10 - - - -
24/01:00pm 30.8 WNW 6 10 1009.6 - 0.0 - - 10 - - - -
24/12:30pm 30.5 WNW 7 10 1010.1 - 0.0 - - 10 - - - -
24/12:00pm 30.7 SW 4 9 1010.5 - 0.0 - - 10 - - - -
24/11:30am 29.9 SE 5 7 1011.2 - 0.0 - - 10 - - - -
24/11:00am 29.3 S 5 8 1011.7 - 0.0 - - 10 - - - -
24/10:30am 28.8 ESE 5 8 1011.9 - 0.0 - - 10 - - - -
24/10:00am 27.5 SE 6 9 1012.1 - 0.0 - - 10 - - - -
24/09:30am 26.3 SSE 7 9 1011.7 - 0.0 - - 10 - - - -
24/09:00am 25.0 S 7 10 1011.7 - 0.0 - - 10 - - - -
24/08:30am 23.1 SW 4 6 1011.5 - 0.0 - - 7 - - - -
24/08:00am 22.1 S 5 7 1011.2 - 0.0 - - 10 - - - -
24/07:30am 18.5 SSW 1 4 1011.0 - 0.0 - - 9 - - - -
24/07:00am 18.9 SSE 3 4 1011.0 - 0.0 - - 10 - - - -
24/06:30am 19.2 SSE 3 4 1010.5 - 0.0 - - 10 - - - -
24/06:00am 19.3 SE 4 5 1010.3 - 0.0 - - 10 - - - -
24/05:30am 19.1 SE 4 5 1010.1 - 0.0 - - 10 - - - -
24/05:00am 22.3 SSW 5 7 1009.6 - 0.0 - - 7 - - - -
24/04:30am 21.4 SSW 5 6 1009.5 - 0.0 - - 10 - - - -
24/04:00am 19.6 S 5 6 1009.2 - 0.0 - - 8 - - - -
24/03:30am 20.9 S 4 4 1009.1 - 0.0 - - 10 - - - -
24/03:00am 23.5 SW 5 6 1009.1 - 0.0 - - 10 - - - -
24/02:51am 23.3 SW 5 6 1009.0 - 0.0 - - 10 - - - -
24/02:33am 23.4 WSW 5 6 1008.9 - 0.0 - - 5 - - - -
24/02:30am 23.5 WSW 5 6 1009.0 - 0.0 - - 9 - - - -
24/02:00am 24.0 W 6 8 1009.0 - 0.0 - - 10 - - - -
24/01:30am 23.8 W 5 6 1009.0 - 0.0 - - 10 - - - -
24/01:00am 23.8 W 4 6 1009.1 - 0.0 - - 10 - - - -
24/12:30am 24.4 W 6 8 1009.3 - 0.0 - - 10 - - - -
24/12:00am 24.2 W 5 6 1009.2 - 0.0 - - 8 - - - -
 
Date/Time
CST
Temp
°C
Wind Pressure Rain since
9am
mm
Weather Cloud Vis
km
Sea
Height
m
Swell
Dir  Spd
kts
Gust
kts
hPa Trend Height
m
Period
s
Dir
23/11:30pm 23.7 WNW 3 5 1009.3 - 0.0 - - 10 - - - -
23/11:00pm 23.9 WNW 3 4 1009.2 - 0.0 - - 10 - - - -
23/10:30pm 24.3 W 4 7 1009.1 - 0.0 - - 10 - - - -
23/10:00pm 23.6 W 1 3 1009.0 - 0.0 - - 10 - - - -
23/09:30pm 24.3 WNW 3 4 1008.8 - 0.0 - - 10 - - - -
23/09:00pm 24.6 NW 3 5 1008.6 - 0.0 - - 10 - - - -
23/08:30pm 25.3 WNW 5 8 1008.5 - 0.0 - - 10 - - - -
23/08:00pm 25.6 W 7 12 1008.3 - 0.0 - - 10 - - - -
23/07:30pm 26.0 W 7 10 1007.9 - 0.0 - - 10 - - - -
23/07:00pm 26.7 W 8 12 1007.5 - 0.0 - - 10 - - - -
23/06:30pm 27.3 W 9 14 1007.3 - 0.0 - - 10 - - - -
23/06:00pm 27.8 W 10 16 1007.1 - 0.0 - - 10 - - - -
23/05:30pm 28.4 W 10 17 1006.9 - 0.0 - - 10 - - - -
23/05:00pm 29.2 WSW 10 17 1006.8 - 0.0 - - 10 - - - -
23/04:30pm 29.1 W 12 17 1007.0 - 0.0 - - 10 - - - -
23/04:00pm 29.6 WSW 12 22 1007.0 - 0.0 - - 10 - - - -
23/03:30pm 29.4 WSW 14 21 1007.2 - 0.0 - - 10 - - - -
23/03:00pm 29.8 W 12 19 1007.3 - 0.0 - - 10 - - - -
23/02:30pm 30.6 W 11 17 1007.6 - 0.0 - - 10 - - - -
23/02:00pm 29.9 WSW 9 15 1008.1 - 0.0 - - 10 - - - -
23/01:30pm 29.6 W 12 19 1008.3 - 0.0 - - 10 - - - -
23/01:00pm 29.7 W 10 15 1008.6 - 0.0 - - 10 - - - -
23/12:30pm 29.5 W 11 18 1009.1 - 0.0 - - 10 - - - -
23/12:00pm 28.8 W 10 15 1009.6 - 0.0 - - 10 - - - -
23/11:30am 28.7 WSW 9 15 1010.0 - 0.0 - - 10 - - - -
23/11:00am 28.2 SW 11 17 1010.4 - 0.0 - - 10 - - - -
23/10:30am 27.8 WSW 9 14 1010.6 - 0.0 - - 10 - - - -
23/10:00am 27.0 SW 9 14 1010.7 - 0.0 - - 10 - - - -
23/09:30am 26.0 SW 9 13 1010.8 - 0.0 - - 10 - - - -

Other Formats:

Comma delimited format used in spreadsheet applications
http://www.bom.gov.au/fwo/IDD60701/IDD60701.95101.axf

JavaScript Object Notation format (JSON) in row-major order
http://www.bom.gov.au/fwo/IDD60701/IDD60701.95101.json